createdAt,value
2023-03-31T00:00:34.842Z,12.70
2023-03-31T00:03:43.466Z,12.70
2023-03-31T00:06:50.414Z,12.70
2023-03-31T00:10:10.335Z,12.60
2023-03-31T00:13:22.924Z,12.60
2023-03-31T00:16:26.942Z,12.60
2023-03-31T00:19:33.303Z,12.60
2023-03-31T00:22:38.007Z,12.60
2023-03-31T00:25:46.306Z,12.50
2023-03-31T00:28:50.495Z,12.50
2023-03-31T00:31:59.153Z,12.40
2023-03-31T00:35:03.708Z,12.50
2023-03-31T00:38:13.402Z,12.40
2023-03-31T00:41:19.303Z,12.40
2023-03-31T00:44:27.605Z,12.30
2023-03-31T00:47:31.713Z,12.30
2023-03-31T00:50:39.217Z,12.30
2023-03-31T00:53:43.405Z,12.20
2023-03-31T00:56:55.008Z,12.20
2023-03-31T01:00:00.917Z,12.10
2023-03-31T01:03:09.465Z,12.10
2023-03-31T01:06:14.236Z,12.10
2023-03-31T01:09:22.296Z,12.00
2023-03-31T01:12:28.208Z,12.00
2023-03-31T01:15:34.065Z,12.00
2023-03-31T01:18:39.819Z,12.00
2023-03-31T01:21:59.397Z,11.90
2023-03-31T01:25:18.201Z,11.90
2023-03-31T01:28:29.898Z,11.90
2023-03-31T01:31:44.412Z,11.90
2023-03-31T01:35:03.601Z,11.80
2023-03-31T01:38:31.779Z,11.80
2023-03-31T01:41:48.062Z,11.80
2023-03-31T01:44:56.698Z,11.80
2023-03-31T01:48:06.188Z,11.80
2023-03-31T01:51:15.010Z,11.80
2023-03-31T01:54:22.460Z,11.80
2023-03-31T01:57:30.835Z,11.80
2023-03-31T02:00:39.663Z,11.80
2023-03-31T02:03:47.253Z,11.80
2023-03-31T02:07:01.133Z,11.80
2023-03-31T02:10:07.362Z,11.80
2023-03-31T02:13:17.564Z,11.80
2023-03-31T02:16:24.467Z,11.80
2023-03-31T02:19:34.040Z,11.90
2023-03-31T02:22:38.811Z,11.90
2023-03-31T02:25:49.135Z,11.90
2023-03-31T02:28:55.074Z,11.90
2023-03-31T02:32:04.728Z,11.90
2023-03-31T02:35:11.998Z,11.90
2023-03-31T02:38:17.998Z,11.90
2023-03-31T02:41:21.767Z,11.90
2023-03-31T02:44:30.569Z,11.90
2023-03-31T02:47:34.874Z,11.90
2023-03-31T02:50:47.340Z,11.90
2023-03-31T02:53:59.615Z,11.90
2023-03-31T02:57:23.370Z,11.90
2023-03-31T03:00:35.852Z,11.90
2023-03-31T03:03:44.748Z,11.90
2023-03-31T03:06:57.023Z,11.90
2023-03-31T03:10:06.323Z,11.90
2023-03-31T03:13:11.678Z,11.90
2023-03-31T03:16:23.964Z,11.90
2023-03-31T03:19:28.062Z,11.90
2023-03-31T03:22:33.780Z,11.90
2023-03-31T03:25:38.215Z,11.90
2023-03-31T03:28:44.322Z,12.00
2023-03-31T03:31:50.315Z,11.90
2023-03-31T03:34:56.141Z,11.90
2023-03-31T03:37:59.890Z,12.00
2023-03-31T03:41:05.852Z,11.90
2023-03-31T03:44:09.583Z,12.00
2023-03-31T03:47:17.540Z,11.90
2023-03-31T03:50:21.439Z,11.90
2023-03-31T03:53:27.460Z,11.90
2023-03-31T03:56:31.190Z,11.90
2023-03-31T03:59:36.964Z,11.90
2023-03-31T04:02:43.182Z,11.90
2023-03-31T04:05:50.044Z,11.90
2023-03-31T04:08:53.960Z,11.90
2023-03-31T04:11:59.811Z,11.90
2023-03-31T04:15:03.827Z,11.90
2023-03-31T04:18:18.126Z,11.90
2023-03-31T04:21:24.255Z,11.90
2023-03-31T04:24:32.314Z,11.90
2023-03-31T04:27:36.264Z,11.90
2023-03-31T04:30:43.027Z,11.90
2023-03-31T04:33:50.178Z,11.90
2023-03-31T04:36:55.948Z,11.90
2023-03-31T04:40:08.012Z,11.90
2023-03-31T04:43:13.744Z,11.90
2023-03-31T04:46:17.568Z,11.80
2023-03-31T04:49:25.533Z,11.80
2023-03-31T04:52:32.256Z,11.90
2023-03-31T04:55:38.452Z,11.90
2023-03-31T04:58:42.147Z,11.90
2023-03-31T05:01:48.094Z,11.80
2023-03-31T05:04:54.298Z,11.80
2023-03-31T05:08:00.304Z,11.80
2023-03-31T05:11:04.043Z,11.90
2023-03-31T05:14:09.807Z,11.80
2023-03-31T05:17:13.578Z,11.80
2023-03-31T05:20:22.185Z,11.80
2023-03-31T05:23:25.928Z,11.80
2023-03-31T05:26:32.341Z,11.80
2023-03-31T05:29:36.382Z,11.80
2023-03-31T05:32:42.246Z,11.80
2023-03-31T05:35:48.166Z,11.80
2023-03-31T05:38:54.197Z,11.80
2023-03-31T05:41:57.910Z,11.80
2023-03-31T05:45:04.116Z,11.80
2023-03-31T05:48:08.168Z,11.70
2023-03-31T05:51:16.370Z,11.70
2023-03-31T05:54:20.321Z,11.70
2023-03-31T05:57:26.181Z,11.70
2023-03-31T06:00:31.065Z,11.70
2023-03-31T06:03:37.831Z,11.80
2023-03-31T06:06:45.669Z,11.70
2023-03-31T06:09:51.404Z,11.70
2023-03-31T06:12:55.116Z,11.70
2023-03-31T06:16:02.115Z,11.70
2023-03-31T06:19:05.832Z,11.70
2023-03-31T06:22:14.035Z,11.70
2023-03-31T06:25:17.921Z,11.70
2023-03-31T06:28:23.877Z,11.70
2023-03-31T06:31:28.462Z,11.70
2023-03-31T06:34:34.397Z,11.70
2023-03-31T06:37:40.086Z,11.70
2023-03-31T06:40:46.037Z,11.70
2023-03-31T06:43:49.896Z,11.80
2023-03-31T06:46:56.548Z,11.70
2023-03-31T06:50:00.954Z,11.80
2023-03-31T06:53:09.414Z,11.80
2023-03-31T06:56:13.527Z,11.80
2023-03-31T06:59:19.739Z,11.80
2023-03-31T07:02:23.724Z,11.80
2023-03-31T07:05:29.931Z,11.80
2023-03-31T07:08:35.941Z,11.90
2023-03-31T07:11:41.710Z,11.90
2023-03-31T07:14:45.667Z,11.90
2023-03-31T07:17:53.499Z,11.90
2023-03-31T07:20:57.245Z,11.90
2023-03-31T07:24:05.234Z,11.90
2023-03-31T07:27:08.995Z,12.00
2023-03-31T07:30:16.000Z,12.00
2023-03-31T07:33:20.090Z,12.00
2023-03-31T07:36:26.167Z,12.00
2023-03-31T07:39:32.177Z,12.00
2023-03-31T07:42:38.345Z,12.10
2023-03-31T07:45:42.404Z,12.10
2023-03-31T07:48:48.532Z,12.10
2023-03-31T07:51:52.238Z,12.10
2023-03-31T07:55:00.217Z,12.20
2023-03-31T07:58:03.901Z,12.20
2023-03-31T08:01:11.752Z,12.20
2023-03-31T08:04:15.727Z,12.20
2023-03-31T08:07:21.758Z,12.20
2023-03-31T08:10:28.401Z,12.30
2023-03-31T08:13:34.398Z,12.30
2023-03-31T08:16:38.493Z,12.30
2023-03-31T08:19:46.985Z,12.30
2023-03-31T08:22:51.103Z,12.40
2023-03-31T08:26:08.409Z,12.40
2023-03-31T08:29:12.448Z,12.50
2023-03-31T08:32:18.370Z,12.50
2023-03-31T08:35:22.126Z,12.60
2023-03-31T08:38:29.033Z,12.60
2023-03-31T08:41:39.183Z,12.70
2023-03-31T08:44:51.413Z,12.70
2023-03-31T08:47:57.038Z,12.80
2023-03-31T08:51:05.086Z,12.80
2023-03-31T08:54:14.915Z,12.80
2023-03-31T08:57:27.116Z,12.90
2023-03-31T09:00:34.281Z,12.80
2023-03-31T09:03:44.913Z,12.90
2023-03-31T09:06:52.446Z,13.00
2023-03-31T09:10:05.252Z,12.90
2023-03-31T09:13:19.768Z,13.00
2023-03-31T09:16:28.324Z,13.00
2023-03-31T09:19:36.849Z,13.00
2023-03-31T09:22:46.385Z,13.00
2023-03-31T09:25:50.945Z,13.00
2023-03-31T09:29:00.480Z,13.00
2023-03-31T09:32:11.985Z,13.00
2023-03-31T09:35:21.016Z,13.00
2023-03-31T09:38:28.969Z,13.00
2023-03-31T09:41:35.952Z,13.00
2023-03-31T09:44:42.771Z,13.10
2023-03-31T09:47:52.132Z,13.10
2023-03-31T09:50:58.219Z,13.10
2023-03-31T09:54:06.021Z,13.10
2023-03-31T09:57:17.677Z,13.10
2023-03-31T10:00:27.628Z,13.10
2023-03-31T10:03:36.119Z,13.10
2023-03-31T10:06:43.506Z,13.10
2023-03-31T10:09:47.424Z,13.10
2023-03-31T10:12:54.750Z,13.10
2023-03-31T10:16:07.859Z,13.10
2023-03-31T10:19:15.019Z,13.10
2023-03-31T10:22:28.485Z,13.20
2023-03-31T10:25:35.537Z,13.10
2023-03-31T10:28:40.102Z,13.10
2023-03-31T10:31:48.156Z,13.10
2023-03-31T10:34:52.003Z,13.10
2023-03-31T10:37:59.396Z,13.10
2023-03-31T10:41:03.760Z,13.20
2023-03-31T10:44:31.309Z,13.20
2023-03-31T10:47:37.234Z,13.20
2023-03-31T10:50:44.472Z,13.30
2023-03-31T10:53:48.746Z,13.30
2023-03-31T10:56:56.002Z,13.30
2023-03-31T11:00:12.675Z,13.40
2023-03-31T11:03:33.497Z,13.50
2023-03-31T11:06:50.039Z,13.50
2023-03-31T11:10:03.586Z,13.60
2023-03-31T11:13:09.532Z,13.60
2023-03-31T11:16:20.231Z,13.70
2023-03-31T11:19:29.692Z,13.80
2023-03-31T11:22:43.612Z,13.90
2023-03-31T11:25:50.286Z,13.90
2023-03-31T11:29:07.624Z,14.00
2023-03-31T11:32:24.515Z,14.10
2023-03-31T11:35:39.099Z,14.10
2023-03-31T11:38:50.212Z,14.10
2023-03-31T11:41:58.785Z,14.20
2023-03-31T11:45:05.094Z,14.20
2023-03-31T11:48:16.378Z,14.20
2023-03-31T11:51:22.560Z,14.30
2023-03-31T11:54:34.852Z,14.30
2023-03-31T11:57:41.016Z,14.30
2023-03-31T12:00:48.907Z,14.40
2023-03-31T12:03:58.103Z,14.40
2023-03-31T12:07:06.170Z,14.50
2023-03-31T12:10:18.948Z,14.50
2023-03-31T12:13:32.845Z,14.60
2023-03-31T12:16:39.025Z,14.60
2023-03-31T12:19:47.777Z,14.70
2023-03-31T12:22:51.589Z,14.70
2023-03-31T12:26:03.991Z,14.70
2023-03-31T12:29:13.893Z,14.80
2023-03-31T12:32:21.312Z,14.80
2023-03-31T12:35:26.877Z,14.90
2023-03-31T12:38:38.556Z,14.90
2023-03-31T12:41:47.461Z,14.90
2023-03-31T12:44:59.423Z,14.90
2023-03-31T12:48:17.434Z,14.90
2023-03-31T12:51:29.977Z,14.90
2023-03-31T12:54:51.526Z,14.80
2023-03-31T12:58:32.909Z,14.90
2023-03-31T13:01:37.049Z,14.90
2023-03-31T13:04:43.306Z,14.90
2023-03-31T13:07:47.250Z,15.00
2023-03-31T13:10:56.859Z,15.00
2023-03-31T13:14:04.218Z,15.00
2023-03-31T13:17:14.526Z,15.00
2023-03-31T13:20:25.875Z,15.10
2023-03-31T13:23:33.685Z,15.10
2023-03-31T13:26:38.813Z,15.10
2023-03-31T13:29:49.345Z,15.10
2023-03-31T13:33:04.368Z,15.10
2023-03-31T13:36:25.454Z,15.20
2023-03-31T13:39:46.749Z,15.20
2023-03-31T13:43:05.727Z,15.20
2023-03-31T13:46:23.242Z,15.30
2023-03-31T13:49:42.396Z,15.30
2023-03-31T13:52:49.628Z,15.30
2023-03-31T13:56:02.613Z,15.30
2023-03-31T13:59:30.067Z,15.30
2023-03-31T14:02:44.305Z,15.30
2023-03-31T14:05:51.737Z,15.30
2023-03-31T14:08:59.671Z,15.40
2023-03-31T14:12:03.762Z,15.30
2023-03-31T14:15:19.971Z,15.30
2023-03-31T14:18:27.114Z,15.40
2023-03-31T14:21:36.284Z,15.30
2023-03-31T14:24:42.681Z,15.30
2023-03-31T14:27:53.352Z,15.30
2023-03-31T14:31:04.454Z,15.30
2023-03-31T14:34:20.784Z,15.30
2023-03-31T14:37:25.014Z,15.30
2023-03-31T14:40:31.239Z,15.20
2023-03-31T14:43:36.505Z,15.20
2023-03-31T14:46:42.236Z,15.20
2023-03-31T14:49:47.992Z,15.20
2023-03-31T14:52:55.088Z,15.10
2023-03-31T14:56:01.918Z,15.20
2023-03-31T14:59:09.086Z,15.10
2023-03-31T15:02:16.373Z,15.10
2023-03-31T15:05:27.844Z,15.10
2023-03-31T15:08:33.372Z,15.10
2023-03-31T15:11:39.973Z,15.10
2023-03-31T15:14:45.500Z,15.00
2023-03-31T15:17:53.131Z,15.00
2023-03-31T15:20:59.153Z,14.90
2023-03-31T15:24:05.648Z,14.80
2023-03-31T15:30:21.026Z,14.60
2023-03-31T15:33:27.799Z,14.60
2023-03-31T15:36:36.901Z,14.50
2023-03-31T15:39:41.436Z,14.50
2023-03-31T15:43:01.477Z,14.40
2023-03-31T15:46:11.415Z,14.30
2023-03-31T15:49:21.733Z,14.20
2023-03-31T15:52:33.478Z,14.10
2023-03-31T15:58:54.686Z,14.00
2023-03-31T16:02:03.234Z,13.90
2023-03-31T16:05:13.859Z,13.80
2023-03-31T16:08:37.497Z,13.80
2023-03-31T16:11:42.780Z,13.70
2023-03-31T16:14:52.213Z,13.70
2023-03-31T16:17:58.354Z,13.70
2023-03-31T16:21:05.600Z,13.60
2023-03-31T16:24:11.794Z,13.60
2023-03-31T16:27:18.122Z,13.60
2023-03-31T16:30:23.565Z,13.50
2023-03-31T16:33:30.377Z,13.50
2023-03-31T16:36:34.260Z,13.40
2023-03-31T16:39:42.265Z,13.40
2023-03-31T16:42:46.125Z,13.40
2023-03-31T16:45:53.159Z,13.40
2023-03-31T16:48:57.326Z,13.30
2023-03-31T16:52:04.583Z,13.30
2023-03-31T16:55:10.794Z,13.30
2023-03-31T16:58:17.465Z,13.30
2023-03-31T17:01:24.165Z,13.30
2023-03-31T17:04:30.323Z,13.30
2023-03-31T17:07:34.386Z,13.30
2023-03-31T17:10:42.500Z,13.30
2023-03-31T17:13:47.220Z,13.30
2023-03-31T17:16:53.180Z,13.20
2023-03-31T17:19:58.735Z,13.30
2023-03-31T17:23:04.692Z,13.20
2023-03-31T17:26:12.055Z,13.20
2023-03-31T17:29:17.855Z,13.20
2023-03-31T17:32:22.131Z,13.20
2023-03-31T17:35:31.209Z,13.10
2023-03-31T17:38:35.460Z,13.10
2023-03-31T17:41:43.708Z,13.10
2023-03-31T17:44:49.673Z,13.10
2023-03-31T17:47:56.459Z,13.00
2023-03-31T17:51:04.593Z,13.00
2023-03-31T17:54:10.641Z,13.00
2023-03-31T17:57:16.760Z,13.00
2023-03-31T18:00:22.822Z,12.90
2023-03-31T18:03:29.175Z,12.90
2023-03-31T18:06:35.103Z,12.90
2023-03-31T18:09:39.020Z,12.80
2023-03-31T18:12:47.343Z,12.80
2023-03-31T18:15:52.417Z,12.80
2023-03-31T18:18:58.693Z,12.70
2023-03-31T18:22:02.651Z,12.70
2023-03-31T18:25:09.367Z,12.70
2023-03-31T18:28:15.305Z,12.70
2023-03-31T18:31:21.719Z,12.60
2023-03-31T18:34:26.058Z,12.60
2023-03-31T18:37:33.267Z,12.60
2023-03-31T18:40:37.180Z,12.60
2023-03-31T18:43:46.984Z,12.60
2023-03-31T18:46:50.859Z,12.50
2023-03-31T18:49:57.153Z,12.50
2023-03-31T18:53:00.859Z,12.50
2023-03-31T18:56:06.645Z,12.50
2023-03-31T18:59:12.583Z,12.40
2023-03-31T19:02:18.636Z,12.40
2023-03-31T19:05:22.508Z,12.40
2023-03-31T19:08:28.504Z,12.40
2023-03-31T19:11:32.209Z,12.30
2023-03-31T19:14:40.791Z,12.30
2023-03-31T19:17:44.640Z,12.30
2023-03-31T19:20:50.391Z,12.30
2023-03-31T19:23:54.094Z,12.30
2023-03-31T19:27:00.034Z,12.30
2023-03-31T19:30:06.501Z,12.30
2023-03-31T19:33:12.490Z,12.30
2023-03-31T19:36:16.473Z,12.20
2023-03-31T19:39:22.725Z,12.20
2023-03-31T19:42:26.496Z,12.20
2023-03-31T19:45:37.153Z,12.20
2023-03-31T19:48:41.040Z,12.10
2023-03-31T19:51:47.183Z,12.10
2023-03-31T19:54:50.910Z,12.10
2023-03-31T19:57:56.846Z,12.10
2023-03-31T20:01:02.612Z,12.10
2023-03-31T20:04:08.959Z,12.10
2023-03-31T20:07:13.178Z,12.00
2023-03-31T20:10:19.020Z,12.00
2023-03-31T20:13:23.007Z,12.00
2023-03-31T20:16:31.594Z,12.00
2023-03-31T20:19:36.030Z,12.00
2023-03-31T20:22:45.091Z,12.00
2023-03-31T20:25:48.825Z,12.00
2023-03-31T20:28:55.508Z,12.00
2023-03-31T20:32:02.174Z,12.00
2023-03-31T20:35:08.511Z,12.00
2023-03-31T20:38:12.429Z,12.00
2023-03-31T20:41:20.195Z,12.00
2023-03-31T20:44:23.879Z,12.00
2023-03-31T20:47:34.205Z,12.00
2023-03-31T20:50:39.514Z,11.90
2023-03-31T20:53:48.199Z,11.90
2023-03-31T20:56:52.018Z,11.90
2023-03-31T20:59:57.954Z,11.90
2023-03-31T21:03:04.604Z,11.90
2023-03-31T21:06:12.192Z,11.90
2023-03-31T21:09:17.135Z,11.90
2023-03-31T21:12:23.086Z,11.90
2023-03-31T21:15:26.831Z,11.90
2023-03-31T21:18:36.815Z,11.80
2023-03-31T21:21:42.693Z,11.80
2023-03-31T21:24:48.438Z,11.80
2023-03-31T21:27:52.552Z,11.80
2023-03-31T21:30:59.673Z,11.80
2023-03-31T21:34:05.771Z,11.80
2023-03-31T21:37:11.571Z,11.80
2023-03-31T21:40:18.324Z,11.80
2023-03-31T21:43:25.354Z,11.80
2023-03-31T21:46:29.675Z,11.80
2023-03-31T21:49:37.621Z,11.80
2023-03-31T21:52:41.643Z,11.70
2023-03-31T21:55:47.533Z,11.70
2023-03-31T21:58:52.675Z,11.80
2023-03-31T22:01:58.796Z,11.70
2023-03-31T22:05:04.833Z,11.70
2023-03-31T22:08:10.546Z,11.70
2023-03-31T22:11:14.472Z,11.70
2023-03-31T22:14:21.094Z,11.70
2023-03-31T22:17:24.828Z,11.70
2023-03-31T22:20:33.076Z,11.70
2023-03-31T22:23:37.042Z,11.70
2023-03-31T22:26:43.057Z,11.70
2023-03-31T22:29:46.735Z,11.70
2023-03-31T22:32:53.017Z,11.70
2023-03-31T22:35:59.061Z,11.70
2023-03-31T22:39:05.230Z,11.70
2023-03-31T22:42:08.957Z,11.70
2023-03-31T22:45:15.215Z,11.60
2023-03-31T22:48:19.041Z,11.60
2023-03-31T22:51:26.856Z,11.60
2023-03-31T22:54:31.417Z,11.60
2023-03-31T22:57:37.121Z,11.60
2023-03-31T23:00:41.663Z,11.60
2023-03-31T23:03:48.032Z,11.60
2023-03-31T23:06:54.592Z,11.60
2023-03-31T23:10:00.575Z,11.60
2023-03-31T23:13:05.498Z,11.60
2023-03-31T23:16:12.178Z,11.60
2023-03-31T23:19:17.954Z,11.60
2023-03-31T23:22:26.499Z,11.60
2023-03-31T23:25:30.462Z,11.60
2023-03-31T23:28:37.474Z,11.60
2023-03-31T23:31:41.519Z,11.60
2023-03-31T23:34:47.269Z,11.60
2023-03-31T23:37:52.971Z,11.60
2023-03-31T23:40:58.748Z,11.60
2023-03-31T23:44:02.515Z,11.60
2023-03-31T23:47:08.507Z,11.50
2023-03-31T23:50:13.088Z,11.50
2023-03-31T23:53:21.540Z,11.50
2023-03-31T23:56:26.654Z,11.50
2023-03-31T23:59:32.663Z,11.50
